Terminal Aerodrome Forecast
Issued by NWS

Home | Current Version | Previous Version | Graphics & Text | Print | Product List | Glossary On
Versions: 1 2 3 4 5 6 7 8 9 10 11 12 13 14 15 16 17 18 19 20 21 22
000
FTUS43 KABR 131000 AAB
TAFMBG
TAF AMD
KMBG 131040Z 1311/1406 36016G23KT P6SM OVC015
     FM131700 36023G33KT P6SM SCT025 BKN050
     FM140200 36010KT P6SM SKC=

USA.gov is the U.S. government's official web portal to all federal, state and local government web resources and services.